Time;durP1;ratioP1;P1;durP2;ratioP2;P2;SDS_P1;SDS_P2;PMS_P1;PMS_P2;Temp;Humidity;BMP_temperature;BMP_pressure;BME280_temperature;BME280_humidity;BME280_pressure;Samples;Min_cycle;Max_cycle;Signal;HPM_P1;HPM_P2
2023/09/05 00:00:17;;;;;;;8.02;5.30;;;;;;;;;;5091788;28;20036;-62
2023/09/05 00:02:44;;;;;;;7.53;5.22;;;;;;;;;;5091165;28;20035;-62
2023/09/05 00:05:11;;;;;;;7.20;5.25;;;;;;;;;;5091914;28;20125;-62
2023/09/05 00:07:38;;;;;;;7.50;5.40;;;;;;;;;;5091818;28;20493;-62
2023/09/05 00:10:10;;;;;;;8.30;5.50;;;;;;;;;;5077039;28;20059;-62
2023/09/05 00:12:40;;;;;;;9.80;5.28;;;;;;;;;;5073438;28;20101;-62
2023/09/05 00:15:07;;;;;;;8.15;6.13;;;;;;;;;;5091737;28;20054;-62
2023/09/05 00:17:34;;;;;;;7.43;5.10;;;;;;;;;;5081394;28;20047;-62
2023/09/05 00:20:00;;;;;;;6.95;5.53;;;;;;;;;;5092056;28;20474;-62
2023/09/05 00:22:26;;;;;;;8.63;5.85;;;;;;;;;;5091219;28;20059;-62
2023/09/05 00:24:52;;;;;;;7.30;5.15;;;;;;;;;;5092026;28;20036;-62
2023/09/05 00:27:19;;;;;;;6.30;4.90;;;;;;;;;;5091468;28;20351;-62
2023/09/05 00:29:45;;;;;;;8.07;5.80;;;;;;;;;;5091128;28;20056;-62
2023/09/05 00:32:11;;;;;;;7.55;5.35;;;;;;;;;;5091458;28;20421;-62
2023/09/05 00:34:38;;;;;;;7.85;5.80;;;;;;;;;;5091464;28;20508;-62
2023/09/05 00:37:05;;;;;;;7.60;5.43;;;;;;;;;;5091312;28;20044;-62
2023/09/05 00:39:33;;;;;;;7.78;5.60;;;;;;;;;;5091061;28;20036;-62
2023/09/05 00:42:03;;;;;;;7.75;5.35;;;;;;;;;;5091472;28;20036;-62
2023/09/05 00:44:29;;;;;;;5.88;5.25;;;;;;;;;;5091018;28;20162;-62
2023/09/05 00:46:58;;;;;;;6.32;5.45;;;;;;;;;;5091725;28;20478;-62
2023/09/05 00:49:27;;;;;;;8.13;5.20;;;;;;;;;;5091386;28;20036;-62
2023/09/05 00:52:01;;;;;;;6.95;5.60;;;;;;;;;;5094169;28;20040;-62
2023/09/05 00:54:27;;;;;;;6.90;5.43;;;;;;;;;;5097978;28;20549;-62
2023/09/05 00:56:53;;;;;;;7.60;5.80;;;;;;;;;;5096456;28;20044;-62
2023/09/05 00:59:20;;;;;;;7.68;5.55;;;;;;;;;;5097605;28;20046;-62
2023/09/05 01:01:47;;;;;;;9.73;5.78;;;;;;;;;;5097980;28;20115;-62
2023/09/05 01:04:13;;;;;;;9.70;5.80;;;;;;;;;;5098361;28;20392;-62
2023/09/05 01:06:58;;;;;;;9.20;5.72;;;;;;;;;;5097504;28;20040;-62
2023/09/05 01:09:24;;;;;;;10.27;5.80;;;;;;;;;;5098300;28;20093;-62
2023/09/05 01:11:51;;;;;;;8.00;5.72;;;;;;;;;;5097839;28;20044;-62
2023/09/05 01:14:17;;;;;;;6.72;5.35;;;;;;;;;;5097695;28;20087;-62
2023/09/05 01:16:46;;;;;;;6.78;5.75;;;;;;;;;;5086872;28;20047;-62
2023/09/05 01:19:15;;;;;;;8.48;6.20;;;;;;;;;;5081220;28;20042;-62
2023/09/05 01:21:48;;;;;;;8.85;6.35;;;;;;;;;;5097545;28;20160;-62
2023/09/05 01:24:15;;;;;;;6.57;5.68;;;;;;;;;;5097453;28;20040;-62
2023/09/05 01:26:41;;;;;;;8.32;6.10;;;;;;;;;;5098106;28;20046;-62
2023/09/05 01:29:11;;;;;;;7.88;5.72;;;;;;;;;;5097044;28;20052;-62
2023/09/05 01:31:37;;;;;;;7.88;6.30;;;;;;;;;;5097550;28;20051;-62
2023/09/05 01:34:03;;;;;;;6.90;5.95;;;;;;;;;;5097460;28;20398;-62
2023/09/05 01:36:29;;;;;;;6.97;5.53;;;;;;;;;;5097560;28;20051;-62
2023/09/05 01:38:55;;;;;;;8.43;6.40;;;;;;;;;;5097895;28;20051;-62
2023/09/05 01:41:22;;;;;;;8.10;5.80;;;;;;;;;;5097515;28;20064;-62
2023/09/05 01:43:48;;;;;;;10.27;5.95;;;;;;;;;;5096240;28;20066;-62
2023/09/05 01:46:14;;;;;;;9.00;6.13;;;;;;;;;;5097623;28;20044;-62
2023/09/05 01:48:41;;;;;;;6.30;5.70;;;;;;;;;;5098037;28;20043;-62
2023/09/05 01:51:07;;;;;;;8.88;6.57;;;;;;;;;;5096900;28;20062;-62
2023/09/05 01:53:34;;;;;;;9.18;6.93;;;;;;;;;;5097644;28;20522;-62
2023/09/05 01:56:00;;;;;;;8.15;6.53;;;;;;;;;;5097419;28;20044;-62
2023/09/05 01:58:26;;;;;;;8.65;7.00;;;;;;;;;;5097455;28;20043;-62
2023/09/05 02:00:52;;;;;;;9.60;6.82;;;;;;;;;;5097528;28;20042;-62
2023/09/05 02:03:18;;;;;;;10.93;7.65;;;;;;;;;;5094755;28;20127;-62
2023/09/05 02:05:44;;;;;;;10.77;7.80;;;;;;;;;;5094056;28;20139;-62
2023/09/05 02:08:11;;;;;;;8.55;7.57;;;;;;;;;;5094159;28;20119;-61
2023/09/05 02:10:37;;;;;;;11.30;8.00;;;;;;;;;;5094358;28;20053;-62
2023/09/05 02:13:03;;;;;;;10.23;7.47;;;;;;;;;;5093615;28;20044;-62
2023/09/05 02:15:29;;;;;;;11.10;8.52;;;;;;;;;;5093846;28;20043;-62
2023/09/05 02:17:55;;;;;;;10.82;8.45;;;;;;;;;;5092687;28;20044;-62
2023/09/05 02:20:23;;;;;;;9.77;7.82;;;;;;;;;;5093957;28;20044;-62
2023/09/05 02:22:49;;;;;;;14.75;8.80;;;;;;;;;;5093892;28;20040;-62
2023/09/05 02:25:15;;;;;;;10.65;8.32;;;;;;;;;;5093368;28;20040;-62
2023/09/05 02:27:41;;;;;;;10.65;8.63;;;;;;;;;;5093667;28;20118;-62
2023/09/05 02:30:07;;;;;;;14.80;9.43;;;;;;;;;;5092937;28;20056;-62
2023/09/05 02:32:33;;;;;;;10.43;8.23;;;;;;;;;;5092757;28;20042;-62
2023/09/05 02:34:59;;;;;;;11.73;8.77;;;;;;;;;;5091916;28;20051;-62
2023/09/05 02:37:26;;;;;;;11.68;8.52;;;;;;;;;;5092677;28;20055;-62
2023/09/05 02:39:52;;;;;;;11.32;8.32;;;;;;;;;;5092176;28;20059;-62
2023/09/05 02:42:18;;;;;;;11.15;8.95;;;;;;;;;;5092101;28;20036;-62
2023/09/05 02:44:44;;;;;;;12.15;8.77;;;;;;;;;;5092075;28;20103;-62
2023/09/05 02:47:10;;;;;;;10.95;8.57;;;;;;;;;;5092623;28;20136;-62
2023/09/05 02:49:36;;;;;;;11.30;9.05;;;;;;;;;;5092007;28;20432;-62
2023/09/05 02:52:02;;;;;;;12.50;8.88;;;;;;;;;;5091639;28;20081;-62
2023/09/05 02:54:29;;;;;;;10.55;8.48;;;;;;;;;;5092426;28;20432;-62
2023/09/05 02:56:55;;;;;;;10.85;8.10;;;;;;;;;;5091806;28;20044;-62
2023/09/05 02:59:21;;;;;;;12.05;9.32;;;;;;;;;;5091621;28;20071;-62
2023/09/05 03:01:47;;;;;;;9.27;8.05;;;;;;;;;;5090525;28;20036;-62
2023/09/05 03:04:16;;;;;;;16.58;9.25;;;;;;;;;;5091955;28;20036;-62
2023/09/05 03:06:42;;;;;;;12.60;9.00;;;;;;;;;;5091304;28;20389;-62
2023/09/05 03:09:08;;;;;;;10.65;8.32;;;;;;;;;;5092003;28;20035;-62
2023/09/05 03:11:34;;;;;;;10.98;8.15;;;;;;;;;;5086092;28;20398;-62
2023/09/05 03:14:01;;;;;;;10.63;8.82;;;;;;;;;;5070867;28;20040;-62
2023/09/05 03:16:28;;;;;;;11.10;8.32;;;;;;;;;;5081551;28;20052;-62
2023/09/05 03:18:59;;;;;;;9.02;7.88;;;;;;;;;;5075792;28;20480;-62
2023/09/05 03:21:25;;;;;;;10.63;9.00;;;;;;;;;;5090142;28;20032;-62
2023/09/05 03:23:51;;;;;;;10.25;8.73;;;;;;;;;;5091375;28;20036;-62
2023/09/05 03:26:18;;;;;;;10.45;8.95;;;;;;;;;;5091834;28;20482;-62
2023/09/05 03:28:44;;;;;;;11.65;9.10;;;;;;;;;;5090776;28;20231;-62
2023/09/05 03:31:10;;;;;;;13.57;8.75;;;;;;;;;;5091627;28;20055;-62
2023/09/05 03:33:36;;;;;;;11.05;9.15;;;;;;;;;;5091224;28;20131;-62
2023/09/05 03:36:05;;;;;;;10.20;8.82;;;;;;;;;;5089602;28;20123;-62
2023/09/05 03:38:31;;;;;;;11.50;8.88;;;;;;;;;;5091078;28;20406;-62
2023/09/05 03:40:57;;;;;;;14.02;9.35;;;;;;;;;;5090792;28;20051;-62
2023/09/05 03:43:23;;;;;;;11.27;8.90;;;;;;;;;;5090989;28;20036;-62
2023/09/05 03:45:49;;;;;;;13.25;9.68;;;;;;;;;;5091025;28;20115;-62
2023/09/05 03:48:15;;;;;;;12.82;9.30;;;;;;;;;;5091466;28;20443;-62
2023/09/05 03:50:41;;;;;;;11.68;8.90;;;;;;;;;;5090417;28;20113;-62
2023/09/05 03:53:07;;;;;;;12.18;8.82;;;;;;;;;;5090873;28;20048;-62
2023/09/05 03:55:34;;;;;;;12.10;8.82;;;;;;;;;;5090651;28;20368;-62
2023/09/05 03:58:04;;;;;;;13.30;9.30;;;;;;;;;;5089640;28;20470;-62
2023/09/05 04:00:30;;;;;;;11.95;9.27;;;;;;;;;;5090460;28;20118;-62
2023/09/05 04:02:56;;;;;;;12.02;8.50;;;;;;;;;;5089204;28;20546;-62
2023/09/05 04:05:22;;;;;;;10.07;8.65;;;;;;;;;;5090543;28;20502;-62
2023/09/05 04:07:48;;;;;;;11.52;9.10;;;;;;;;;;5090327;28;20078;-62
2023/09/05 04:10:14;;;;;;;15.02;9.70;;;;;;;;;;5091051;28;20040;-62
2023/09/05 04:12:40;;;;;;;12.35;9.25;;;;;;;;;;5089900;28;20059;-62
2023/09/05 04:15:06;;;;;;;13.38;9.85;;;;;;;;;;5090888;28;20040;-62
2023/09/05 04:17:33;;;;;;;13.05;9.30;;;;;;;;;;5084824;28;20039;-62
2023/09/05 04:19:59;;;;;;;12.65;8.70;;;;;;;;;;5090259;28;20142;-62
2023/09/05 04:22:28;;;;;;;12.80;9.70;;;;;;;;;;5088881;28;20131;-62
2023/09/05 04:24:55;;;;;;;14.52;9.75;;;;;;;;;;5090699;28;20032;-62
2023/09/05 04:27:21;;;;;;;12.35;8.93;;;;;;;;;;5088767;28;20174;-62
2023/09/05 04:29:51;;;;;;;11.48;9.15;;;;;;;;;;5089722;28;20430;-62
2023/09/05 04:32:27;;;;;;;14.27;9.95;;;;;;;;;;5090130;28;20059;-62
2023/09/05 04:35:00;;;;;;;11.88;9.30;;;;;;;;;;5089623;28;20161;-62
2023/09/05 04:37:26;;;;;;;11.85;9.52;;;;;;;;;;5090498;28;20044;-62
2023/09/05 04:39:53;;;;;;;12.00;9.15;;;;;;;;;;5089980;28;20036;-62
2023/09/05 04:42:19;;;;;;;14.20;9.80;;;;;;;;;;5089867;28;20036;-61
2023/09/05 04:44:45;;;;;;;12.05;9.50;;;;;;;;;;5089969;28;20047;-62
2023/09/05 04:47:20;;;;;;;14.48;10.23;;;;;;;;;;5090089;28;20093;-62
2023/09/05 04:49:47;;;;;;;14.38;10.43;;;;;;;;;;5089954;28;20503;-62
2023/09/05 04:52:14;;;;;;;14.25;9.80;;;;;;;;;;5089920;28;20070;-62
2023/09/05 04:54:40;;;;;;;12.27;9.30;;;;;;;;;;5090238;28;20035;-62
2023/09/05 04:57:06;;;;;;;12.63;9.88;;;;;;;;;;5089454;28;20418;-62
2023/09/05 04:59:32;;;;;;;11.77;9.80;;;;;;;;;;5090413;28;20032;-62
2023/09/05 05:01:58;;;;;;;13.15;10.25;;;;;;;;;;5089681;28;20036;-62
2023/09/05 05:04:24;;;;;;;11.23;9.10;;;;;;;;;;5088260;28;20040;-62
2023/09/05 05:06:50;;;;;;;13.27;9.82;;;;;;;;;;5089831;28;20074;-62
2023/09/05 05:09:16;;;;;;;11.50;10.30;;;;;;;;;;5089765;28;20044;-62
2023/09/05 05:11:42;;;;;;;13.52;10.07;;;;;;;;;;5089742;28;20527;-62
2023/09/05 05:14:08;;;;;;;14.15;9.80;;;;;;;;;;5089422;28;20502;-62
2023/09/05 05:16:34;;;;;;;14.40;9.93;;;;;;;;;;5078463;28;20457;-62
2023/09/05 05:19:00;;;;;;;12.43;10.35;;;;;;;;;;5076309;28;20117;-62
2023/09/05 05:21:26;;;;;;;13.15;10.18;;;;;;;;;;5090001;28;20039;-62
2023/09/05 05:23:52;;;;;;;13.60;9.40;;;;;;;;;;5089505;28;20063;-62
2023/09/05 05:26:18;;;;;;;15.88;11.30;;;;;;;;;;5089640;28;20032;-62
2023/09/05 05:28:44;;;;;;;13.82;10.20;;;;;;;;;;5079124;28;20056;-62
2023/09/05 05:31:13;;;;;;;17.52;9.88;;;;;;;;;;5069532;28;20490;-62
2023/09/05 05:33:39;;;;;;;13.13;9.73;;;;;;;;;;5087898;28;20505;-62
2023/09/05 05:36:05;;;;;;;17.17;10.50;;;;;;;;;;5088125;28;20044;-62
2023/09/05 05:38:31;;;;;;;11.35;9.65;;;;;;;;;;5092223;28;20043;-62
2023/09/05 05:40:58;;;;;;;14.25;10.73;;;;;;;;;;5092864;28;20394;-62
2023/09/05 05:43:27;;;;;;;14.88;10.50;;;;;;;;;;5093567;28;20483;-62
2023/09/05 05:45:53;;;;;;;13.90;10.32;;;;;;;;;;5093266;28;20040;-62
2023/09/05 05:48:19;;;;;;;12.32;10.30;;;;;;;;;;5093231;28;20502;-61
2023/09/05 05:50:45;;;;;;;13.25;10.73;;;;;;;;;;5093199;28;20046;-62
2023/09/05 05:53:12;;;;;;;13.73;11.23;;;;;;;;;;5093550;28;20036;-62
2023/09/05 05:55:38;;;;;;;13.80;11.05;;;;;;;;;;5092247;28;20044;-62
2023/09/05 05:58:04;;;;;;;12.38;10.18;;;;;;;;;;5092841;28;20059;-62
2023/09/05 06:00:30;;;;;;;14.75;10.50;;;;;;;;;;5093263;28;20052;-62
2023/09/05 06:02:56;;;;;;;15.85;10.75;;;;;;;;;;5090572;28;20495;-62
2023/09/05 06:05:22;;;;;;;13.65;10.38;;;;;;;;;;5093344;28;20063;-62
2023/09/05 06:07:49;;;;;;;14.98;10.90;;;;;;;;;;5092730;28;20529;-62
2023/09/05 06:10:15;;;;;;;14.85;10.70;;;;;;;;;;5092905;28;20409;-62
2023/09/05 06:12:42;;;;;;;11.85;9.85;;;;;;;;;;5092788;28;20036;-62
2023/09/05 06:15:08;;;;;;;13.13;10.77;;;;;;;;;;5092964;28;20414;-62
2023/09/05 06:17:34;;;;;;;13.00;10.45;;;;;;;;;;5089796;28;20083;-62
2023/09/05 06:20:00;;;;;;;19.15;12.90;;;;;;;;;;5092719;28;20119;-62
2023/09/05 06:22:26;;;;;;;13.38;10.40;;;;;;;;;;5092514;28;20119;-62
2023/09/05 06:24:52;;;;;;;14.25;10.77;;;;;;;;;;5092546;28;20036;-62
2023/09/05 06:27:18;;;;;;;13.65;10.40;;;;;;;;;;5079354;28;20036;-63
2023/09/05 06:29:45;;;;;;;12.75;10.75;;;;;;;;;;5098170;28;20065;-63
2023/09/05 06:32:11;;;;;;;14.43;10.55;;;;;;;;;;5103173;28;20065;-63
2023/09/05 06:34:37;;;;;;;13.15;9.85;;;;;;;;;;5085566;28;20126;-67
2023/09/05 06:37:04;;;;;;;12.40;10.45;;;;;;;;;;5091973;28;20052;-66
2023/09/05 06:39:30;;;;;;;14.30;10.05;;;;;;;;;;5092339;28;20059;-65
2023/09/05 06:41:56;;;;;;;12.80;10.23;;;;;;;;;;5087757;28;20130;-65
2023/09/05 06:44:22;;;;;;;14.35;10.23;;;;;;;;;;5092520;28;20044;-66
2023/09/05 06:46:48;;;;;;;14.43;10.27;;;;;;;;;;5087171;28;20555;-66
2023/09/05 06:49:14;;;;;;;13.38;10.48;;;;;;;;;;5091547;28;20093;-65
2023/09/05 06:51:40;;;;;;;14.73;10.32;;;;;;;;;;5091722;28;20056;-64
2023/09/05 06:54:06;;;;;;;18.42;10.85;;;;;;;;;;5090445;28;20032;-65
2023/09/05 06:56:33;;;;;;;13.52;10.50;;;;;;;;;;5091501;28;20044;-64
2023/09/05 06:58:59;;;;;;;12.27;9.55;;;;;;;;;;5092024;28;20523;-63
2023/09/05 07:01:25;;;;;;;15.07;10.15;;;;;;;;;;5090897;28;20039;-63
2023/09/05 07:03:51;;;;;;;12.75;9.68;;;;;;;;;;5092978;28;20379;-64
2023/09/05 07:06:18;;;;;;;15.52;10.32;;;;;;;;;;5091355;28;20054;-63
2023/09/05 07:08:46;;;;;;;12.48;9.70;;;;;;;;;;5091612;28;20051;-62
2023/09/05 07:11:12;;;;;;;11.32;8.73;;;;;;;;;;5091804;28;20044;-63
2023/09/05 07:13:38;;;;;;;13.05;9.90;;;;;;;;;;5084483;28;20574;-63
2023/09/05 07:16:04;;;;;;;11.65;8.77;;;;;;;;;;5086432;28;20136;-64
2023/09/05 07:18:30;;;;;;;12.25;9.38;;;;;;;;;;5090764;28;20038;-63
2023/09/05 07:20:56;;;;;;;12.07;10.05;;;;;;;;;;5087735;28;20073;-64
2023/09/05 07:23:22;;;;;;;11.75;9.27;;;;;;;;;;5091365;28;20047;-64
2023/09/05 07:25:49;;;;;;;13.07;9.20;;;;;;;;;;5091016;28;20089;-64
2023/09/05 07:28:15;;;;;;;10.82;8.80;;;;;;;;;;5090989;28;20044;-64
2023/09/05 07:30:41;;;;;;;13.10;9.25;;;;;;;;;;5091179;28;20060;-64
2023/09/05 07:33:07;;;;;;;9.73;8.43;;;;;;;;;;5090781;28;20269;-65
2023/09/05 07:35:33;;;;;;;9.82;8.50;;;;;;;;;;5090878;28;20098;-64
2023/09/05 07:37:59;;;;;;;10.65;7.32;;;;;;;;;;5090953;28;20453;-64
2023/09/05 07:40:26;;;;;;;8.85;7.70;;;;;;;;;;5090975;28;20043;-64
2023/09/05 07:42:52;;;;;;;10.73;7.47;;;;;;;;;;5088099;28;20048;-63
2023/09/05 07:45:18;;;;;;;8.63;7.22;;;;;;;;;;5090732;28;20089;-64
2023/09/05 07:47:44;;;;;;;14.23;6.97;;;;;;;;;;5090764;28;20040;-65
2023/09/05 07:50:10;;;;;;;8.57;6.55;;;;;;;;;;5090540;28;20036;-66
2023/09/05 07:52:36;;;;;;;7.28;6.35;;;;;;;;;;5091444;28;20047;-64
2023/09/05 07:55:03;;;;;;;7.22;6.13;;;;;;;;;;5090616;28;20119;-64
2023/09/05 07:57:29;;;;;;;8.38;5.57;;;;;;;;;;5089355;28;20048;-64
2023/09/05 07:59:55;;;;;;;6.80;5.43;;;;;;;;;;5090773;28;20494;-65
2023/09/05 08:02:21;;;;;;;7.55;5.60;;;;;;;;;;5088733;28;20051;-64
2023/09/05 08:04:47;;;;;;;8.90;6.15;;;;;;;;;;5090953;28;20468;-64
2023/09/05 08:07:14;;;;;;;7.28;5.60;;;;;;;;;;5090030;28;20044;-65
2023/09/05 08:09:40;;;;;;;8.65;4.95;;;;;;;;;;5090494;28;20075;-63
2023/09/05 08:12:06;;;;;;;6.38;5.30;;;;;;;;;;5090266;28;20493;-64
2023/09/05 08:14:32;;;;;;;10.13;6.30;;;;;;;;;;5089152;28;20040;-63
2023/09/05 08:16:58;;;;;;;6.63;4.97;;;;;;;;;;5089678;28;20513;-64
2023/09/05 08:19:24;;;;;;;7.82;5.03;;;;;;;;;;5090013;28;20039;-65
2023/09/05 08:21:51;;;;;;;7.43;4.53;;;;;;;;;;5087998;28;20058;-64
2023/09/05 08:24:17;;;;;;;7.15;4.05;;;;;;;;;;5089362;28;20371;-64
2023/09/05 08:26:43;;;;;;;6.75;4.63;;;;;;;;;;5090302;28;20047;-65
2023/09/05 08:29:09;;;;;;;7.97;4.72;;;;;;;;;;5085668;28;20060;-65
2023/09/05 08:31:35;;;;;;;5.07;4.18;;;;;;;;;;5085027;28;20127;-65
2023/09/05 08:34:01;;;;;;;7.43;4.05;;;;;;;;;;5090682;28;20494;-65
2023/09/05 08:36:27;;;;;;;7.75;3.90;;;;;;;;;;5085867;28;20109;-65
2023/09/05 08:38:53;;;;;;;5.70;3.88;;;;;;;;;;5089415;28;20131;-63
2023/09/05 08:41:19;;;;;;;6.90;3.72;;;;;;;;;;5086312;28;20097;-63
2023/09/05 08:43:45;;;;;;;5.07;3.60;;;;;;;;;;5089768;28;20036;-63
2023/09/05 08:46:12;;;;;;;3.90;3.33;;;;;;;;;;5085327;28;20355;-65
2023/09/05 08:48:38;;;;;;;5.38;3.45;;;;;;;;;;5087676;28;20036;-64
2023/09/05 08:51:05;;;;;;;7.63;3.70;;;;;;;;;;5089354;28;20080;-63
2023/09/05 08:53:35;;;;;;;3.88;3.28;;;;;;;;;;5089920;28;20056;-64
2023/09/05 08:56:01;;;;;;;3.50;3.20;;;;;;;;;;5087738;28;20048;-64
2023/09/05 08:58:28;;;;;;;4.05;3.20;;;;;;;;;;5090281;28;20038;-66
2023/09/05 09:00:54;;;;;;;3.53;2.75;;;;;;;;;;5089616;28;20085;-65
2023/09/05 09:03:20;;;;;;;6.28;3.10;;;;;;;;;;5090430;28;20063;-64
2023/09/05 09:05:46;;;;;;;4.40;3.10;;;;;;;;;;5090276;28;20044;-64
2023/09/05 09:08:13;;;;;;;5.28;3.70;;;;;;;;;;5089627;28;20044;-63
2023/09/05 09:10:40;;;;;;;7.28;3.45;;;;;;;;;;5089739;28;20040;-63
2023/09/05 09:13:17;;;;;;;4.50;3.42;;;;;;;;;;5092021;28;20040;-64
2023/09/05 09:15:46;;;;;;;4.00;2.88;;;;;;;;;;5091313;28;20158;-64
2023/09/05 09:18:12;;;;;;;4.53;2.88;;;;;;;;;;5079157;28;20070;-64
2023/09/05 09:20:44;;;;;;;5.00;3.53;;;;;;;;;;5093671;28;20039;-64
2023/09/05 09:23:10;;;;;;;;;;;;;;;;;;5093752;28;20072;-64
2023/09/05 09:25:36;;;;;;;4.28;2.70;;;;;;;;;;5094837;28;19978;-64
2023/09/05 09:28:02;;;;;;;3.50;2.22;;;;;;;;;;5093307;28;20039;-64
2023/09/05 09:30:30;;;;;;;4.22;2.33;;;;;;;;;;5093540;28;20060;-64
2023/09/05 09:32:56;;;;;;;3.35;2.20;;;;;;;;;;5089009;28;20067;-64
2023/09/05 09:35:22;;;;;;;3.45;2.30;;;;;;;;;;5091712;28;20045;-65
2023/09/05 09:37:49;;;;;;;3.28;2.28;;;;;;;;;;5089098;28;20442;-64
2023/09/05 09:40:18;;;;;;;5.18;2.58;;;;;;;;;;5093074;28;20036;-62
2023/09/05 09:42:50;;;;;;;3.58;2.25;;;;;;;;;;5094446;28;20052;-64
2023/09/05 09:45:17;;;;;;;3.83;2.20;;;;;;;;;;5092898;28;20089;-64
2023/09/05 09:47:47;;;;;;;8.25;5.05;;;;;;;;;;5093246;28;20032;-64
2023/09/05 09:50:14;;;;;;;2.45;2.15;;;;;;;;;;5093754;28;20126;-64
2023/09/05 09:52:43;;;;;;;4.63;2.25;;;;;;;;;;5092759;28;20093;-65
2023/09/05 09:55:11;;;;;;;4.35;2.58;;;;;;;;;;5093630;28;20040;-65
2023/09/05 09:57:39;;;;;;;3.40;2.10;;;;;;;;;;5093358;28;20566;-65
2023/09/05 10:00:15;;;;;;;4.68;2.42;;;;;;;;;;5092873;28;20109;-64
2023/09/05 10:02:45;;;;;;;4.43;2.78;;;;;;;;;;5083011;28;20159;-65
2023/09/05 10:05:12;;;;;;;2.72;2.22;;;;;;;;;;5092499;28;20071;-65
2023/09/05 10:07:39;;;;;;;2.22;1.70;;;;;;;;;;5092308;28;20769;-64
2023/09/05 10:10:05;;;;;;;4.65;3.38;;;;;;;;;;5093829;28;20450;-64
2023/09/05 10:12:32;;;;;;;2.45;2.25;;;;;;;;;;5092308;28;20592;-64
2023/09/05 10:15:02;;;;;;;2.83;2.20;;;;;;;;;;5093254;28;20044;-64
2023/09/05 10:17:30;;;;;;;2.58;1.80;;;;;;;;;;5075840;28;20493;-64
2023/09/05 10:19:56;;;;;;;4.50;2.17;;;;;;;;;;5078082;28;20063;-64
2023/09/05 10:22:23;;;;;;;2.75;1.63;;;;;;;;;;5092704;28;20036;-67
2023/09/05 10:24:49;;;;;;;1.95;1.75;;;;;;;;;;5091287;28;20040;-64
2023/09/05 10:27:16;;;;;;;4.28;1.83;;;;;;;;;;5092797;28;20043;-63
2023/09/05 10:29:43;;;;;;;3.92;2.33;;;;;;;;;;5091312;28;20135;-65
2023/09/05 10:32:09;;;;;;;3.55;2.13;;;;;;;;;;5091954;28;20080;-65
2023/09/05 10:35:05;;;;;;;8.35;2.20;;;;;;;;;;5092549;28;20189;-65
2023/09/05 10:37:34;;;;;;;2.20;1.85;;;;;;;;;;5090814;28;20464;-66
2023/09/05 10:40:06;;;;;;;4.25;1.88;;;;;;;;;;5092491;28;20052;-66
2023/09/05 10:42:33;;;;;;;2.35;1.48;;;;;;;;;;5092303;28;20040;-65
2023/09/05 10:45:00;;;;;;;4.45;2.10;;;;;;;;;;5091882;28;20477;-65
2023/09/05 10:47:30;;;;;;;2.95;1.50;;;;;;;;;;5092679;28;20040;-65
2023/09/05 10:49:59;;;;;;;4.25;1.60;;;;;;;;;;5091946;28;20082;-66
2023/09/05 10:52:29;;;;;;;4.80;1.60;;;;;;;;;;5090795;28;20544;-64
2023/09/05 10:54:59;;;;;;;4.40;1.38;;;;;;;;;;5088159;28;20040;-67
2023/09/05 10:57:34;;;;;;;2.55;1.52;;;;;;;;;;5086791;28;20073;-65
2023/09/05 11:00:11;;;;;;;2.40;1.60;;;;;;;;;;5089704;28;20055;-66
2023/09/05 11:02:40;;;;;;;1.70;1.60;;;;;;;;;;5092233;28;20705;-65
2023/09/05 11:05:19;;;;;;;4.32;1.52;;;;;;;;;;5092134;28;20676;-65
2023/09/05 11:07:50;;;;;;;2.45;1.80;;;;;;;;;;5092532;28;20040;-65
2023/09/05 11:10:29;;;;;;;3.25;1.52;;;;;;;;;;5088200;28;20044;-65
2023/09/05 11:13:14;;;;;;;2.60;1.52;;;;;;;;;;5091969;28;20072;-65
2023/09/05 11:15:43;;;;;;;3.67;1.58;;;;;;;;;;5090831;28;20513;-65
2023/09/05 11:18:14;;;;;;;2.13;1.20;;;;;;;;;;5090693;28;20119;-65
2023/09/05 11:20:47;;;;;;;1.88;1.40;;;;;;;;;;5092051;28;20119;-65
2023/09/05 11:23:16;;;;;;;1.90;1.20;;;;;;;;;;5092155;28;20432;-65
2023/09/05 11:25:43;;;;;;;3.58;1.52;;;;;;;;;;5091975;28;20040;-64
2023/09/05 11:28:09;;;;;;;1.90;1.50;;;;;;;;;;5091172;28;20517;-65
2023/09/05 11:30:40;;;;;;;1.52;1.30;;;;;;;;;;5091819;28;20526;-64
2023/09/05 11:33:07;;;;;;;2.72;1.30;;;;;;;;;;5092098;28;20083;-63
2023/09/05 11:35:35;;;;;;;2.70;1.58;;;;;;;;;;5091274;28;20089;-63
2023/09/05 11:38:03;;;;;;;2.53;1.30;;;;;;;;;;5091969;28;20048;-63
2023/09/05 11:40:30;;;;;;;1.70;1.20;;;;;;;;;;5091464;28;20043;-63
2023/09/05 11:43:06;;;;;;;1.27;1.17;;;;;;;;;;5091822;28;20115;-64
2023/09/05 11:45:33;;;;;;;2.42;1.20;;;;;;;;;;5091528;28;20040;-64
2023/09/05 11:48:00;;;;;;;6.13;2.08;;;;;;;;;;5092119;28;20079;-63
2023/09/05 11:50:26;;;;;;;2.10;1.10;;;;;;;;;;5091042;28;20036;-64
2023/09/05 11:52:53;;;;;;;1.48;1.10;;;;;;;;;;5091289;28;20044;-64
2023/09/05 11:55:21;;;;;;;4.20;1.40;;;;;;;;;;5092018;28;20467;-64
2023/09/05 11:57:50;;;;;;;5.55;1.33;;;;;;;;;;5090967;28;20127;-63
2023/09/05 12:00:17;;;;;;;1.80;1.27;;;;;;;;;;5092078;28;20044;-64
2023/09/05 12:02:44;;;;;;;2.13;1.30;;;;;;;;;;5090219;28;20452;-64
2023/09/05 12:05:11;;;;;;;4.30;1.42;;;;;;;;;;5091291;28;20051;-64
2023/09/05 12:07:37;;;;;;;2.50;1.33;;;;;;;;;;5091636;28;20530;-65
2023/09/05 12:10:03;;;;;;;2.53;1.63;;;;;;;;;;5091473;28;20119;-65
2023/09/05 12:12:29;;;;;;;2.92;1.58;;;;;;;;;;5090439;28;20048;-65
2023/09/05 12:14:57;;;;;;;3.33;1.58;;;;;;;;;;5091586;28;20089;-64
2023/09/05 12:17:25;;;;;;;3.60;1.50;;;;;;;;;;5078534;28;20503;-65
2023/09/05 12:19:55;;;;;;;3.65;1.40;;;;;;;;;;5079080;28;20085;-65
2023/09/05 12:22:25;;;;;;;2.25;1.27;;;;;;;;;;5089494;28;20087;-65
2023/09/05 12:25:28;;;;;;;3.15;1.75;;;;;;;;;;5085208;28;20028;-63
2023/09/05 12:27:58;;;;;;;3.17;1.30;;;;;;;;;;5083098;28;20055;-63
2023/09/05 12:30:28;;;;;;;3.35;1.40;;;;;;;;;;5074531;28;20499;-63
2023/09/05 12:32:55;;;;;;;2.95;1.30;;;;;;;;;;5077177;28;20044;-62
2023/09/05 12:35:22;;;;;;;2.28;1.10;;;;;;;;;;5085281;28;20036;-62
2023/09/05 12:37:48;;;;;;;2.60;1.42;;;;;;;;;;5089631;28;20098;-63
2023/09/05 12:40:15;;;;;;;1.70;1.38;;;;;;;;;;5089987;28;20028;-63
2023/09/05 12:42:44;;;;;;;4.25;1.38;;;;;;;;;;5084454;28;20119;-63
2023/09/05 12:45:11;;;;;;;2.50;1.15;;;;;;;;;;5079463;28;20047;-63
2023/09/05 12:47:37;;;;;;;2.58;1.10;;;;;;;;;;5082544;28;20071;-63
2023/09/05 12:50:03;;;;;;;2.63;1.20;;;;;;;;;;5087707;28;20367;-62
2023/09/05 12:52:29;;;;;;;2.95;1.17;;;;;;;;;;5077676;28;20043;-63
2023/09/05 12:54:56;;;;;;;1.30;1.10;;;;;;;;;;5084332;28;20066;-64
2023/09/05 12:57:22;;;;;;;2.28;1.10;;;;;;;;;;5088512;28;20062;-63
2023/09/05 12:59:48;;;;;;;4.28;1.42;;;;;;;;;;5088910;28;20040;-64
2023/09/05 13:02:17;;;;;;;4.15;1.27;;;;;;;;;;5083328;28;20423;-64
2023/09/05 13:04:43;;;;;;;4.88;1.27;;;;;;;;;;5087747;28;20074;-64
2023/09/05 13:07:10;;;;;;;1.40;1.20;;;;;;;;;;5090162;28;20067;-64
2023/09/05 13:09:36;;;;;;;2.05;1.00;;;;;;;;;;5088037;28;20540;-64
2023/09/05 13:12:02;;;;;;;3.08;1.35;;;;;;;;;;5081411;28;20048;-64
2023/09/05 13:14:29;;;;;;;2.15;1.17;;;;;;;;;;5083043;28;20406;-62
2023/09/05 13:16:55;;;;;;;1.83;1.15;;;;;;;;;;5084570;28;20043;-64
2023/09/05 13:19:21;;;;;;;2.80;1.30;;;;;;;;;;5086858;28;20076;-62
2023/09/05 13:21:48;;;;;;;1.20;1.10;;;;;;;;;;5086844;28;20371;-62
2023/09/05 13:24:13;;;;;;;4.75;1.17;;;;;;;;;;5086502;28;20513;-63
2023/09/05 13:26:40;;;;;;;4.72;1.10;;;;;;;;;;5083416;28;20078;-63
2023/09/05 13:29:05;;;;;;;2.67;1.20;;;;;;;;;;5090144;28;20059;-64
2023/09/05 13:31:32;;;;;;;1.67;1.17;;;;;;;;;;5086807;28;20048;-63
2023/09/05 13:33:58;;;;;;;1.23;1.10;;;;;;;;;;5088714;28;20149;-64
2023/09/05 13:36:24;;;;;;;1.67;1.20;;;;;;;;;;5083768;28;20056;-64
2023/09/05 13:38:50;;;;;;;3.47;1.30;;;;;;;;;;5089207;28;20047;-64
2023/09/05 13:41:16;;;;;;;4.80;1.25;;;;;;;;;;5088474;28;20364;-62
2023/09/05 13:43:42;;;;;;;2.53;1.20;;;;;;;;;;5088321;28;20040;-62
2023/09/05 13:46:08;;;;;;;2.00;1.10;;;;;;;;;;5085043;28;20044;-62
2023/09/05 13:48:34;;;;;;;2.75;1.23;;;;;;;;;;5080973;28;20078;-62
2023/09/05 13:51:00;;;;;;;2.58;1.15;;;;;;;;;;5087065;28;20040;-63
2023/09/05 13:53:26;;;;;;;3.03;1.10;;;;;;;;;;5077524;28;20505;-63
2023/09/05 13:55:53;;;;;;;1.23;1.10;;;;;;;;;;5079984;28;20131;-64
2023/09/05 13:58:22;;;;;;;1.15;1.05;;;;;;;;;;5084068;28;20052;-64
2023/09/05 14:00:48;;;;;;;2.05;1.20;;;;;;;;;;5090004;28;20037;-65
2023/09/05 14:03:15;;;;;;;2.50;1.20;;;;;;;;;;5086886;28;20676;-64
2023/09/05 14:05:41;;;;;;;1.50;1.40;;;;;;;;;;5084984;28;20483;-63
2023/09/05 14:08:07;;;;;;;2.03;1.10;;;;;;;;;;5085545;28;20039;-63
2023/09/05 14:10:33;;;;;;;3.90;1.20;;;;;;;;;;5088784;28;20036;-63
2023/09/05 14:12:59;;;;;;;1.92;1.20;;;;;;;;;;5092747;28;20122;-63
2023/09/05 14:15:26;;;;;;;3.47;1.30;;;;;;;;;;5087510;28;20442;-64
2023/09/05 14:17:51;;;;;;;2.67;1.10;;;;;;;;;;5076423;28;20043;-64
2023/09/05 14:20:18;;;;;;;3.70;1.10;;;;;;;;;;5081581;28;20455;-63
2023/09/05 14:22:44;;;;;;;1.00;0.90;;;;;;;;;;5080684;28;20035;-63
2023/09/05 14:25:10;;;;;;;5.10;1.20;;;;;;;;;;5086199;28;20043;-63
2023/09/05 14:27:36;;;;;;;1.10;1.00;;;;;;;;;;5089040;28;20478;-63
2023/09/05 14:30:05;;;;;;;1.50;1.00;;;;;;;;;;5084531;28;20056;-62
2023/09/05 14:32:31;;;;;;;2.42;1.00;;;;;;;;;;5083888;28;20115;-62
2023/09/05 14:34:57;;;;;;;2.10;1.00;;;;;;;;;;5085881;28;20059;-63